createdAt,value
2019-05-23T00:01:54.568Z,66.75
2019-05-23T00:06:56.288Z,66.16
2019-05-23T00:11:58.303Z,65.47
2019-05-23T00:16:59.856Z,65.95
2019-05-23T00:22:02.044Z,66.15
2019-05-23T00:27:04.068Z,65.58
2019-05-23T00:32:05.602Z,65.29
2019-05-23T00:37:07.472Z,65.70
2019-05-23T00:42:09.253Z,65.84
2019-05-23T00:47:10.698Z,66.01
2019-05-23T00:52:12.204Z,66.07
2019-05-23T00:57:14.011Z,66.57
2019-05-23T01:02:15.553Z,66.52
2019-05-23T01:07:17.542Z,66.55
2019-05-23T01:12:19.235Z,66.89
2019-05-23T01:17:20.913Z,66.82
2019-05-23T01:22:22.506Z,66.66
2019-05-23T01:27:24.319Z,66.90
2019-05-23T01:32:26.106Z,66.74
2019-05-23T01:37:27.752Z,66.70
2019-05-23T01:42:29.298Z,67.41
2019-05-23T01:47:30.980Z,67.26
2019-05-23T01:52:32.523Z,67.73
2019-05-23T01:57:34.693Z,67.00
2019-05-23T02:02:36.205Z,66.47
2019-05-23T02:07:37.763Z,65.72
2019-05-23T02:12:39.312Z,64.94
2019-05-23T02:17:40.722Z,64.45
2019-05-23T02:22:42.579Z,64.37
2019-05-23T02:27:45.028Z,64.36
2019-05-23T02:32:46.617Z,64.39
2019-05-23T02:37:48.482Z,64.67
2019-05-23T02:42:50.298Z,64.59
2019-05-23T02:47:52.142Z,64.40
2019-05-23T02:52:53.929Z,64.13
2019-05-23T02:57:59.126Z,64.43
2019-05-23T03:03:00.859Z,64.47
2019-05-23T03:08:02.857Z,64.16
2019-05-23T03:13:04.353Z,64.64
2019-05-23T03:18:05.633Z,64.86
2019-05-23T03:23:09.968Z,64.75
2019-05-23T03:28:11.730Z,64.66
2019-05-23T03:33:13.262Z,65.09
2019-05-23T03:38:14.844Z,65.10
2019-05-23T03:43:16.322Z,64.81
2019-05-23T03:48:17.823Z,64.66
2019-05-23T03:53:19.754Z,64.19
2019-05-23T03:58:21.620Z,65.94
2019-05-23T04:03:23.573Z,64.46
2019-05-23T04:08:25.207Z,64.54
2019-05-23T04:13:27.433Z,64.24
2019-05-23T04:18:29.040Z,64.62
2019-05-23T04:23:30.606Z,64.62
2019-05-23T04:28:32.160Z,64.29
2019-05-23T04:33:33.600Z,64.38
2019-05-23T04:38:36.471Z,64.11
2019-05-23T04:43:38.763Z,63.83
2019-05-23T04:48:40.276Z,63.77
2019-05-23T04:53:41.989Z,63.43
2019-05-23T04:58:43.473Z,63.38
2019-05-23T05:03:46.325Z,63.34
2019-05-23T05:08:47.844Z,63.65
2019-05-23T05:13:49.612Z,63.87
2019-05-23T05:18:51.091Z,63.89
2019-05-23T05:23:52.982Z,64.24
2019-05-23T05:28:54.907Z,63.64
2019-05-23T05:33:56.488Z,64.12
2019-05-23T05:38:58.427Z,63.27
2019-05-23T05:44:00.228Z,62.51
2019-05-23T05:49:01.829Z,62.00
2019-05-23T05:54:03.481Z,61.05
2019-05-23T05:59:05.597Z,61.76
2019-05-23T06:04:07.849Z,62.48
2019-05-23T06:09:09.831Z,61.38
2019-05-23T06:14:11.406Z,61.57
2019-05-23T06:19:12.821Z,61.60
2019-05-23T06:24:14.679Z,61.44
2019-05-23T06:29:16.367Z,61.61
2019-05-23T06:34:17.940Z,61.50
2019-05-23T06:39:19.472Z,61.11
2019-05-23T06:44:21.322Z,60.86
2019-05-23T06:49:22.954Z,60.22
2019-05-23T06:54:24.631Z,60.45
2019-05-23T06:59:26.041Z,60.00
2019-05-23T07:04:28.553Z,59.18
2019-05-23T07:09:30.095Z,58.72
2019-05-23T07:14:32.275Z,57.26
2019-05-23T07:19:33.754Z,54.78
2019-05-23T07:24:35.747Z,54.50
2019-05-23T07:29:37.853Z,54.27
2019-05-23T07:34:39.404Z,54.37
2019-05-23T07:39:40.975Z,53.47
2019-05-23T07:44:48.333Z,52.12
2019-05-23T07:49:45.951Z,52.25
2019-05-23T07:54:48.149Z,50.95
2019-05-23T07:59:49.705Z,48.56
2019-05-23T08:04:51.378Z,47.92
2019-05-23T08:09:53.287Z,48.22
2019-05-23T08:14:55.002Z,46.58
2019-05-23T08:19:56.531Z,45.25
2019-05-23T08:24:58.698Z,43.38
2019-05-23T08:30:02.358Z,44.00
2019-05-23T08:35:04.557Z,43.26
2019-05-23T08:40:06.084Z,41.79
2019-05-23T08:45:08.169Z,42.35
2019-05-23T08:50:10.078Z,43.51
2019-05-23T08:55:18.828Z,42.09
2019-05-23T09:00:20.775Z,42.43
2019-05-23T09:05:22.302Z,40.94
2019-05-23T09:10:23.868Z,41.82
2019-05-23T09:15:25.455Z,42.60
2019-05-23T09:20:26.982Z,41.36
2019-05-23T09:25:28.852Z,41.35
2019-05-23T09:30:30.350Z,40.43
2019-05-23T09:35:31.914Z,40.10
2019-05-23T09:40:33.433Z,41.24
2019-05-23T09:45:35.686Z,39.67
2019-05-23T09:50:37.503Z,39.17
2019-05-23T09:55:39.034Z,39.73
2019-05-23T10:00:40.535Z,39.58
2019-05-23T10:05:44.028Z,37.61
2019-05-23T10:10:45.562Z,38.96
2019-05-23T10:15:47.441Z,38.10
2019-05-23T10:20:49.411Z,38.35
2019-05-23T10:25:50.917Z,37.75
2019-05-23T10:30:52.457Z,35.53
2019-05-23T10:36:00.436Z,36.03
2019-05-23T10:40:57.405Z,35.77
2019-05-23T10:45:59.311Z,33.17
2019-05-23T10:51:01.218Z,31.51
2019-05-23T10:56:02.706Z,30.64
2019-05-23T11:01:04.572Z,32.02
2019-05-23T11:06:15.647Z,30.20
2019-05-23T11:11:14.323Z,30.86
2019-05-23T11:16:14.230Z,28.24
2019-05-23T11:21:16.654Z,28.56
2019-05-23T11:26:18.123Z,27.42
2019-05-23T11:31:19.689Z,27.76
2019-05-23T11:36:34.424Z,28.77
2019-05-23T11:41:25.143Z,27.32
2019-05-23T11:46:26.644Z,28.72
2019-05-23T11:51:28.332Z,27.06
2019-05-23T11:56:29.942Z,28.68
2019-05-23T12:01:31.496Z,29.40
2019-05-23T12:06:51.700Z,29.05
2019-05-23T12:11:42.510Z,28.05
2019-05-23T12:16:41.868Z,28.22
2019-05-23T12:21:44.039Z,27.21
2019-05-23T12:26:46.270Z,30.32
2019-05-23T12:31:49.510Z,30.32
2019-05-23T12:36:51.271Z,29.92
2019-05-23T12:41:52.768Z,30.26
2019-05-23T12:46:54.317Z,29.10
2019-05-23T12:51:56.394Z,27.65
2019-05-23T12:56:58.092Z,27.65
2019-05-23T13:01:59.782Z,28.25
2019-05-23T13:07:01.150Z,28.47
2019-05-23T13:12:02.825Z,28.47
2019-05-23T13:17:04.342Z,28.15
2019-05-23T13:22:06.638Z,26.14
2019-05-23T13:27:08.230Z,27.56
2019-05-23T13:32:09.761Z,27.49
2019-05-23T13:37:16.474Z,27.40
2019-05-23T13:42:15.167Z,26.71
2019-05-23T13:47:16.687Z,26.49
2019-05-23T13:52:18.260Z,26.49
2019-05-23T13:57:19.746Z,25.29
2019-05-23T14:02:21.647Z,23.21
2019-05-23T14:07:23.478Z,26.91
2019-05-23T14:12:25.119Z,25.43
2019-05-23T14:17:26.740Z,25.88
2019-05-23T14:22:28.569Z,25.05
2019-05-23T14:27:30.321Z,25.28
2019-05-23T14:32:31.919Z,27.67
2019-05-23T14:37:33.888Z,24.40
2019-05-23T14:42:35.536Z,23.15
2019-05-23T14:47:37.658Z,23.10
2019-05-23T14:52:39.204Z,23.02
2019-05-23T14:57:41.194Z,27.93
2019-05-23T15:02:42.737Z,27.56
2019-05-23T15:07:44.117Z,25.45
2019-05-23T15:12:45.427Z,25.06
2019-05-23T15:17:47.166Z,27.91
2019-05-23T15:22:48.712Z,29.04
2019-05-23T15:27:50.640Z,29.24
2019-05-23T15:32:51.996Z,28.86
2019-05-23T15:37:53.527Z,27.86
2019-05-23T15:42:55.448Z,28.11
2019-05-23T15:47:56.741Z,31.12
2019-05-23T15:52:58.657Z,31.41
2019-05-23T15:58:00.628Z,31.08
2019-05-23T16:03:02.193Z,29.99
2019-05-23T16:08:03.937Z,30.42
2019-05-23T16:13:05.879Z,30.42
2019-05-23T16:18:07.575Z,29.23
2019-05-23T16:23:09.173Z,29.20
2019-05-23T16:28:10.744Z,29.16
2019-05-23T16:33:12.664Z,29.57
2019-05-23T16:38:14.465Z,29.89
2019-05-23T16:43:16.331Z,29.87
2019-05-23T16:48:17.830Z,31.28
2019-05-23T16:53:19.497Z,31.66
2019-05-23T16:58:21.685Z,33.13
2019-05-23T17:03:23.470Z,33.51
2019-05-23T17:08:25.283Z,31.07
2019-05-23T17:13:28.994Z,30.97
2019-05-23T17:18:30.811Z,31.28
2019-05-23T17:23:33.704Z,32.36
2019-05-23T17:28:38.590Z,31.08
2019-05-23T17:33:40.690Z,29.68
2019-05-23T17:38:43.078Z,29.44
2019-05-23T17:43:44.557Z,30.66
2019-05-23T17:48:49.218Z,31.48
2019-05-23T17:53:50.684Z,32.59
2019-05-23T17:58:52.542Z,33.05
2019-05-23T18:03:54.451Z,33.33
2019-05-23T18:08:56.013Z,33.89
2019-05-23T18:13:57.959Z,35.17
2019-05-23T18:19:00.429Z,35.24
2019-05-23T18:24:02.019Z,35.05
2019-05-23T18:29:03.674Z,35.78
2019-05-23T18:34:05.178Z,35.78
2019-05-23T18:39:07.187Z,35.63
2019-05-23T18:44:08.745Z,35.98
2019-05-23T18:49:10.275Z,35.85
2019-05-23T18:54:11.835Z,36.52
2019-05-23T18:59:13.660Z,36.35
2019-05-23T19:04:15.207Z,36.64
2019-05-23T19:09:17.172Z,36.89
2019-05-23T19:14:19.179Z,37.60
2019-05-23T19:19:20.755Z,37.57
2019-05-23T19:24:22.519Z,37.78
2019-05-23T19:29:24.423Z,37.91
2019-05-23T19:34:26.709Z,38.69
2019-05-23T19:39:28.248Z,38.71
2019-05-23T19:44:30.040Z,39.05
2019-05-23T19:49:31.560Z,40.01
2019-05-23T19:54:33.406Z,40.85
2019-05-23T19:59:35.339Z,41.41
2019-05-23T20:04:36.872Z,42.36
2019-05-23T20:09:39.464Z,42.71
2019-05-23T20:14:41.385Z,43.06
2019-05-23T20:19:42.978Z,44.41
2019-05-23T20:24:45.187Z,46.78
2019-05-23T20:29:46.754Z,46.41
2019-05-23T20:34:48.605Z,46.58
2019-05-23T20:39:50.192Z,46.94
2019-05-23T20:44:51.596Z,47.49
2019-05-23T20:49:53.841Z,48.42
2019-05-23T20:54:55.598Z,48.92
2019-05-23T20:59:57.100Z,49.58
2019-05-23T21:04:58.696Z,50.88
2019-05-23T21:10:00.566Z,50.81
2019-05-23T21:15:02.143Z,50.47
2019-05-23T21:20:04.047Z,50.43
2019-05-23T21:25:05.594Z,50.45
2019-05-23T21:30:07.109Z,51.32
2019-05-23T21:35:09.699Z,51.70
2019-05-23T21:40:15.907Z,52.00
2019-05-23T21:45:17.467Z,52.73
2019-05-23T21:50:19.324Z,53.96
2019-05-23T21:55:34.610Z,54.50
2019-05-23T22:01:06.017Z,54.19
2019-05-23T22:06:10.373Z,54.28
2019-05-23T22:11:12.320Z,56.31
2019-05-23T22:16:13.961Z,56.19
2019-05-23T22:21:15.466Z,55.75
2019-05-23T22:26:17.472Z,56.62
2019-05-23T22:31:19.202Z,57.99
2019-05-23T22:36:21.510Z,58.17
2019-05-23T22:41:23.307Z,59.53
2019-05-23T22:46:24.786Z,59.07
2019-05-23T22:51:26.341Z,58.22
2019-05-23T22:56:27.870Z,57.29
2019-05-23T23:01:29.626Z,56.83
2019-05-23T23:06:31.089Z,58.68
2019-05-23T23:11:32.569Z,59.27
2019-05-23T23:16:34.696Z,59.42
2019-05-23T23:21:36.488Z,59.14
2019-05-23T23:26:38.007Z,57.23
2019-05-23T23:31:39.660Z,58.34
2019-05-23T23:36:41.386Z,56.82
2019-05-23T23:41:42.881Z,57.41
2019-05-23T23:46:44.477Z,56.53
2019-05-23T23:51:45.981Z,56.13
2019-05-23T23:56:48.157Z,55.93
